Artesia ASC

2021-03-02 07:30:00

  • imperial
Date Time Air Temperature Relative Humidity Dewpoint Windchill Heat Index Wind Speed Wind Dir. Rain Solar Radiation Soil Temperature
2m 2m 3m 3m 10cm
US/Mountain F % F F F MPH deg in MJ/m^2 F
max avg avg
2021-03-01 07:45:00 32.2 95.9 31.1 26.9 32.2 5.5 5.8 4.8 316.7 321.4 0.00 0.0200000 47.3
2021-03-01 07:50:00 32.3 96.2 31.3 26.3 32.3 6.3 6.7 6.0 306.7 306.6 0.00 0.0220000 47.2
2021-03-01 07:55:00 32.2 96.5 31.3 27.3 32.2 4.9 7.1 5.8 290.0 299.4 0.00 0.0290000 47.2
2021-03-01 08:00:00 32.4 96.8 31.6 28.9 32.4 3.7 4.9 4.0 288.6 290.1 0.00 0.0280000 47.2
2021-03-01 08:05:00 32.6 97.1 31.9 27.5 32.6 5.3 5.3 4.1 306.8 281.1 0.01 0.0320000 47.2
2021-03-01 08:10:00 32.5 97.2 31.8 26.2 32.5 6.9 6.9 5.2 286.1 288.6 0.00 0.0380000 47.2
2021-03-01 08:15:00 32.6 97.2 31.9 26.8 32.6 6.2 7.6 5.9 273.6 280.1 0.00 0.0670000 47.1
2021-03-01 08:20:00 32.8 97.3 32.1 26.1 32.8 7.4 8.0 6.9 278.6 273.8 0.01 0.0790000 47.1
2021-03-01 08:25:00 33.0 97.5 32.3 26.6 33.0 7.1 9.7 7.3 260.9 281.3 0.00 0.0820000 47.1
2021-03-01 08:30:00 33.3 97.3 32.6 27.7 33.3 6.2 8.0 6.3 266.0 265.9 0.00 0.0860000 47.0
2021-03-01 08:35:00 33.4 97.5 32.8 27.7 33.4 6.2 8.8 7.0 279.0 275.8 0.00 0.0920000 47.0
2021-03-01 08:40:00 33.6 97.8 33.0 28.4 33.6 5.6 8.5 7.0 260.9 275.5 0.00 0.0900000 47.0
2021-03-01 08:45:00 34.1 97.1 33.4 28.1 34.1 6.9 7.1 6.0 256.6 262.0 0.00 0.0860000 47.0
2021-03-01 08:50:00 34.1 96.8 33.3 28.1 34.1 6.9 7.8 6.4 251.1 251.8 0.00 0.0950000 47.0
2021-03-01 08:55:00 34.4 97.3 33.8 28.6 34.4 6.7 7.2 5.8 237.3 234.3 0.00 0.1310000 46.9
2021-03-01 09:00:00 34.6 96.6 33.7 28.4 34.6 7.2 9.4 7.5 238.1 238.6 0.00 0.1690000 46.9
2021-03-01 09:05:00 35.1 96.8 34.3 29.0 35.1 7.2 7.8 6.7 260.7 246.3 0.00 0.1810000 46.9
2021-03-01 09:10:00 36.0 97.8 35.5 31.7 36.0 5.1 7.6 5.9 264.0 257.2 0.00 0.1890000 46.9
2021-03-01 09:15:00 36.5 96.8 35.7 31.2 36.5 6.5 7.4 6.2 262.8 260.5 0.00 0.2460000 46.9
2021-03-01 09:20:00 36.3 95.1 35.1 30.7 36.3 7.1 8.0 6.5 285.5 264.6 0.00 0.3670000 46.8
2021-03-01 09:25:00 36.9 94.5 35.5 31.6 36.9 6.7 7.6 6.3 262.1 277.2 0.00 0.3330000 46.8
2021-03-01 09:30:00 37.5 93.3 35.7 33.6 37.5 4.9 6.3 5.5 267.2 270.2 0.00 0.3170000 46.8
2021-03-01 09:35:00 37.7 89.6 35.0 33.9 37.7 4.9 6.9 5.4 270.5 267.8 0.00 0.3040000 46.8
2021-03-01 09:40:00 38.1 88.1 34.9 35.1 38.1 4.0 6.0 4.5 261.4 255.1 0.00 0.3200000 46.8
2021-03-01 09:45:00 38.6 85.5 34.6 38.6 38.6 2.4 5.5 3.4 220.4 254.0 0.00 0.3720000 46.8
2021-03-01 09:50:00 39.8 84.3 35.4 39.8 39.8 0.0 4.4 2.7 236.7 260.2 0.00 0.5200000 46.8
2021-03-01 09:55:00 40.5 80.8 35.1 38.2 40.5 3.7 4.7 3.0 252.5 256.0 0.00 0.7830000 46.8
2021-03-01 10:00:00 40.9 77.6 34.5 40.9 40.9 1.9 4.4 2.4 203.0 226.7 0.00 0.7870000 46.8
2021-03-01 10:05:00 41.8 73.6 34.0 41.8 41.8 2.1 4.7 3.0 225.4 270.1 0.00 0.6510000 46.8
2021-03-01 10:10:00 42.8 68.1 33.0 42.8 42.8 1.9 3.8 1.8 14.1 302.3 0.00 0.7680000 46.8
2021-03-01 10:15:00 45.1 65.7 34.3 44.0 45.1 3.1 4.0 1.4 240.5 273.5 0.00 0.6090000 46.8
2021-03-01 10:20:00 42.8 68.2 33.0 42.8 42.8 1.9 4.9 3.4 264.8 251.0 0.00 0.6190000 46.9
2021-03-01 10:25:00 41.8 65.4 31.0 41.8 41.8 1.0 5.1 2.8 212.3 196.4 0.00 0.6740000 46.9
2021-03-01 10:30:00 43.9 60.0 30.9 43.9 43.9 2.1 2.8 1.4 29.6 12.4 0.00 0.7180000 46.9
2021-03-01 10:35:00 44.9 61.3 32.3 44.9 44.9 2.6 4.0 2.4 208.8 217.0 0.00 0.7220000 47.0
2021-03-01 10:40:00 45.6 72.4 37.2 41.0 45.6 8.8 9.7 5.4 171.7 185.2 0.00 0.7730000 47.0
2021-03-01 10:45:00 42.1 75.6 34.9 37.5 42.1 7.2 10.3 7.8 190.3 180.2 0.00 0.8310000 47.0
2021-03-01 10:50:00 42.2 79.5 36.3 36.1 42.2 10.6 10.8 8.0 170.8 171.5 0.00 0.8090000 47.1
2021-03-01 10:55:00 42.8 76.0 35.7 36.9 42.8 10.3 10.6 9.0 144.9 148.7 0.00 0.7940000 47.1
2021-03-01 11:00:00 41.6 73.1 33.6 36.3 41.6 8.3 10.8 8.6 150.3 152.5 0.00 0.8330000 47.2
2021-03-01 11:05:00 43.1 78.3 36.8 37.1 43.1 10.8 13.0 9.0 167.3 166.3 0.00 0.8090000 47.3
2021-03-01 11:10:00 42.8 81.0 37.3 37.4 42.8 9.2 11.9 9.2 166.4 161.7 0.00 0.8080000 47.3
2021-03-01 11:15:00 42.3 76.0 35.2 36.7 42.3 9.4 13.1 10.2 153.6 159.0 0.00 0.8130000 47.4
2021-03-01 11:20:00 42.7 72.9 34.6 36.4 42.7 11.3 14.6 10.7 199.7 159.1 0.00 0.7780000 47.5
2021-03-01 11:25:00 42.6 75.4 35.4 37.5 42.6 8.7 11.3 7.1 193.5 174.7 0.00 0.7510000 47.5
2021-03-01 11:30:00 43.2 71.2 34.5 37.3 43.2 10.6 10.6 8.4 172.2 179.4 0.00 0.7500000 47.6
2021-03-01 11:35:00 42.9 69.8 33.7 37.3 42.9 9.7 9.7 6.9 182.0 168.3 0.00 0.7510000 47.7
2021-03-01 11:40:00 43.4 69.2 34.0 40.7 43.4 4.7 10.1 6.3 176.8 162.1 0.00 0.7510000 47.8
2021-03-01 11:45:00 42.3 64.5 31.2 39.5 42.3 4.6 8.7 6.0 189.6 147.6 0.00 0.7540000 47.9
2021-03-01 11:50:00 43.1 63.7 31.6 38.8 43.1 7.1 9.0 6.2 166.2 181.2 0.00 0.7530000 48.0
2021-03-01 11:55:00 42.8 64.7 31.7 39.9 42.8 4.7 6.0 4.9 179.9 122.8 0.00 0.7570000 48.1
2021-03-01 12:00:00 44.3 61.4 31.8 41.9 44.3 4.4 8.8 4.8 135.9 174.0 0.00 0.7560000 48.2
2021-03-01 12:05:00 44.6 60.2 31.6 39.8 44.6 8.8 8.8 5.1 235.5 211.1 0.00 0.7560000 48.3
2021-03-01 12:10:00 44.8 59.1 31.4 44.8 44.8 2.8 7.8 4.4 218.8 231.2 0.00 0.7570000 48.4
2021-03-01 12:15:00 44.7 59.9 31.6 41.6 44.7 5.6 6.5 4.6 194.4 280.5 0.00 0.7520000 48.5
2021-03-01 12:20:00 46.6 57.8 32.6 42.7 46.6 7.8 9.2 6.0 203.5 198.5 0.00 0.7540000 48.6
2021-03-01 12:25:00 46.0 54.9 30.7 43.9 46.0 4.4 7.8 5.0 134.6 153.5 0.00 0.7510000 48.7
2021-03-01 12:30:00 47.3 52.3 30.7 47.3 47.3 2.2 7.8 4.3 144.0 160.2 0.00 0.7510000 48.8
2021-03-01 12:35:00 48.5 52.4 31.8 44.8 48.5 8.1 9.4 4.8 208.1 235.9 0.00 0.7520000 48.9
2021-03-01 12:40:00 44.9 51.5 28.1 42.0 44.9 5.3 9.9 5.7 131.2 180.8 0.00 0.7520000 49.0
2021-03-01 12:45:00 47.7 53.8 31.7 44.7 47.7 6.3 7.8 5.6 140.4 132.0 0.00 0.7500000 49.2
2021-03-01 12:50:00 47.3 48.2 28.7 43.1 47.3 8.8 9.7 7.3 137.6 147.4 0.00 0.7460000 49.2
2021-03-01 12:55:00 48.7 46.0 28.9 46.3 48.7 5.6 8.5 5.6 145.5 142.8 0.00 0.7460000 49.4
2021-03-01 13:00:00 47.5 42.7 25.9 45.2 47.5 5.1 10.1 6.3 178.5 171.2 0.00 0.7430000 49.5
2021-03-01 13:05:00 48.0 42.6 26.3 45.9 48.0 4.9 8.5 4.3 152.9 162.2 0.00 0.1610000 49.6
2021-03-01 13:10:00 48.1 43.2 26.8 45.9 48.1 5.1 8.5 5.2 228.9 183.7 0.00 0.7380000 49.7
2021-03-01 13:15:00 48.1 42.3 26.2 46.9 48.1 3.7 5.5 3.1 96.3 146.7 0.00 0.2160000 49.8
2021-03-01 13:20:00 48.6 41.3 26.2 48.6 48.6 2.8 4.2 2.2 48.8 118.5 0.00 0.7970000 49.9
2021-03-01 13:25:00 49.5 40.2 26.2 48.7 49.5 3.5 6.2 2.9 347.7 345.8 0.00 0.2110000 50.0
2021-03-01 13:30:00 48.8 41.9 26.7 48.8 48.8 2.1 4.9 2.8 140.1 70.1 0.00 0.3710000 50.1
2021-03-01 13:35:00 48.3 38.0 23.8 48.3 48.3 1.3 5.5 3.2 0.7 79.4 0.00 0.1500000 50.2
2021-03-01 13:40:00 47.2 41.7 25.1 46.2 47.2 3.3 4.7 2.9 280.4 293.9 0.00 0.1420000 50.3
2021-03-01 13:45:00 47.1 41.3 24.8 46.3 47.1 3.1 3.1 1.8 232.3 98.3 0.00 0.7430000 50.4
2021-03-01 13:50:00 49.8 39.4 26.0 48.7 49.8 3.8 8.1 4.7 129.5 161.7 0.00 0.7430000 50.5
2021-03-01 13:55:00 49.7 39.1 25.8 46.8 49.7 7.1 7.2 5.5 177.9 139.0 0.00 0.7340000 50.5
2021-03-01 14:00:00 49.7 39.2 25.9 47.4 49.7 5.8 7.6 5.6 199.0 179.9 0.00 0.7670000 50.6
2021-03-01 14:05:00 49.8 35.5 23.5 48.6 49.8 4.0 7.8 3.4 209.1 200.0 0.00 0.1740000 50.7
2021-03-01 14:10:00 49.5 38.2 25.0 49.5 49.5 1.3 3.7 2.8 132.4 257.2 0.00 0.6990000 50.8
2021-03-01 14:15:00 50.6 37.5 25.6 50.6 50.6 4.6 7.4 5.0 143.7 107.9 0.00 0.6440000 50.8
2021-03-01 14:20:00 49.3 37.9 24.7 48.1 49.3 3.8 6.9 5.0 126.4 167.7 0.00 0.6340000 50.9
2021-03-01 14:25:00 49.2 30.5 19.5 48.5 49.2 3.3 7.2 4.7 37.2 74.0 0.00 0.6090000 51.0
2021-03-01 14:30:00 51.3 32.5 22.7 51.3 51.3 2.4 5.6 3.1 148.6 38.6 0.00 0.6050000 51.0
2021-03-01 14:35:00 51.1 30.6 21.2 51.1 51.1 6.0 8.1 5.4 16.4 12.6 0.00 0.4110000 51.1
2021-03-01 14:40:00 50.9 30.8 21.1 50.9 50.9 3.1 6.2 3.7 19.0 6.5 0.00 0.2860000 51.2
2021-03-01 14:45:00 50.1 28.8 18.9 50.1 50.1 5.8 6.9 4.2 82.9 24.9 0.00 0.3980000 51.2
2021-03-01 14:50:00 49.9 27.9 18.0 47.3 49.9 6.5 6.5 4.4 329.5 38.9 0.00 0.5400000 51.3
2021-03-01 14:55:00 50.9 29.7 20.3 50.9 50.9 3.1 7.6 4.5 226.1 295.1 0.00 0.5230000 51.3
2021-03-01 15:00:00 52.0 28.4 20.2 52.0 52.0 5.1 6.3 2.6 69.3 136.4 0.00 0.5130000 51.4
2021-03-01 15:05:00 51.7 29.2 20.6 51.7 51.7 5.8 5.8 3.4 87.2 82.9 0.00 0.5010000 51.4
2021-03-01 15:10:00 51.4 28.4 19.7 51.4 51.4 2.8 8.5 4.5 96.0 59.4 0.00 0.4830000 51.4
2021-03-01 15:15:00 51.3 29.8 20.7 51.3 51.3 2.8 7.4 4.3 318.1 350.3 0.00 0.4680000 51.5
2021-03-01 15:20:00 51.9 27.2 19.1 51.9 51.9 2.6 5.5 3.3 155.5 306.4 0.00 0.4530000 51.5
2021-03-01 15:25:00 52.0 28.1 20.0 52.0 52.0 4.6 5.5 3.2 124.0 149.1 0.00 0.4390000 51.5
2021-03-01 15:30:00 51.2 26.3 17.7 51.2 51.2 2.8 6.7 3.6 103.9 104.1 0.00 0.4250000 51.5
2021-03-01 15:35:00 52.3 26.5 18.9 52.3 52.3 3.1 4.2 2.6 344.0 64.1 0.00 0.4090000 51.6
2021-03-01 15:40:00 51.5 26.8 18.4 51.5 51.5 5.3 9.0 5.2 3.3 340.7 0.00 0.3930000 51.6
2021-03-01 15:45:00 51.7 26.1 18.0 51.7 51.7 3.3 6.2 4.4 324.9 329.8 0.00 0.3780000 51.6
2021-03-01 15:50:00 51.8 24.8 16.9 51.8 51.8 1.3 4.6 2.8 1.0 337.3 0.00 0.3610000 51.6
2021-03-01 15:55:00 52.4 25.4 18.0 52.4 52.4 1.5 6.0 3.4 11.9 31.6 0.00 0.3450000 51.6
2021-03-01 16:00:00 52.1 24.2 16.6 52.1 52.1 3.3 4.9 3.2 69.2 308.4 0.00 0.3290000 51.6
2021-03-01 16:05:00 52.2 23.0 15.5 52.2 52.2 4.4 5.5 3.8 0.6 53.7 0.00 0.3140000 51.6
2021-03-01 16:10:00 52.9 22.2 15.3 52.9 52.9 5.3 5.6 3.4 56.8 30.0 0.00 0.2960000 51.6
2021-03-01 16:15:00 52.6 23.5 16.3 52.6 52.6 2.8 6.2 3.3 350.2 2.2 0.00 0.2810000 51.6
2021-03-01 16:20:00 52.2 27.5 19.7 52.2 52.2 6.5 6.7 4.9 106.1 70.7 0.00 0.2640000 51.6
2021-03-01 16:25:00 52.2 25.7 18.0 52.2 52.2 3.3 6.7 4.2 99.8 91.7 0.00 0.2500000 51.6
2021-03-01 16:30:00 52.0 27.2 19.2 52.0 52.0 4.9 6.3 4.0 80.5 102.3 0.00 0.2340000 51.6
2021-03-01 16:35:00 51.1 39.4 27.2 51.1 51.1 7.1 9.6 6.4 150.5 124.0 0.00 0.2190000 51.6
2021-03-01 16:40:00 50.6 38.8 26.4 50.6 50.6 7.8 9.0 6.8 154.5 163.5 0.00 0.2030000 51.6
2021-03-01 16:45:00 49.7 38.6 25.5 47.2 49.7 6.2 9.0 7.6 127.5 146.0 0.00 0.1870000 51.6
2021-03-01 16:50:00 50.5 37.0 25.2 50.5 50.5 4.9 7.2 6.0 134.0 134.6 0.00 0.1720000 51.7
2021-03-01 16:55:00 50.7 35.0 24.0 50.7 50.7 5.6 6.3 5.0 134.5 149.0 0.00 0.1560000 51.6
2021-03-01 17:00:00 50.0 39.1 26.0 46.9 50.0 7.6 7.6 5.2 198.1 173.2 0.00 0.1420000 51.6
2021-03-01 17:05:00 49.8 40.5 26.7 46.4 49.8 8.1 9.9 7.1 168.4 182.1 0.00 0.1270000 51.6
2021-03-01 17:10:00 49.1 42.7 27.4 44.2 49.1 12.2 13.1 10.1 156.1 171.3 0.00 0.1120000 51.6
2021-03-01 17:15:00 48.5 44.5 27.9 43.7 48.5 11.5 12.6 10.5 157.6 164.4 0.00 0.0960000 51.6
2021-03-01 17:20:00 48.3 44.7 27.8 43.5 48.3 11.3 13.5 10.2 162.8 157.1 0.00 0.0800000 51.6
2021-03-01 17:25:00 47.9 45.2 27.7 43.3 47.9 10.3 12.4 10.4 166.4 165.1 0.00 0.0630000 51.6
2021-03-01 17:30:00 47.9 45.5 27.8 43.4 47.9 9.9 12.8 10.6 155.1 164.2 0.00 0.0480000 51.6
2021-03-01 17:35:00 47.6 47.3 28.5 43.5 47.6 8.7 13.5 11.1 161.3 157.5 0.00 0.0360000 51.6
2021-03-01 17:40:00 47.2 46.1 27.6 42.4 47.2 10.6 14.6 11.3 179.6 171.7 0.00 0.0250000 51.5
2021-03-01 17:45:00 46.9 47.3 27.9 42.0 46.9 10.5 11.7 10.2 163.2 173.8 0.00 0.0150000 51.5
2021-03-01 17:50:00 46.5 47.6 27.6 41.5 46.5 10.6 11.7 10.2 171.0 171.6 0.00 0.0080000 51.5
2021-03-01 17:55:00 46.0 48.6 27.6 41.6 46.0 8.5 10.6 9.0 173.1 169.3 0.00 0.0050000 51.5
2021-03-01 18:00:00 45.6 49.6 27.8 42.3 45.6 6.2 9.6 7.0 161.3 163.9 0.00 0.0030000 51.5
2021-03-01 18:05:00 45.2 50.8 28.0 42.0 45.2 6.0 6.9 6.2 172.3 161.7 0.00 0.0010000 51.4
2021-03-01 18:10:00 44.7 51.3 27.8 41.8 44.7 5.3 6.2 5.6 146.2 158.6 0.00 0.0010000 51.4
2021-03-01 18:15:00 44.5 52.5 28.2 41.2 44.5 5.8 7.1 5.8 145.0 150.7 0.00 0.0000000 51.4
2021-03-01 18:20:00 43.9 54.5 28.5 40.0 43.9 6.5 7.6 6.0 149.7 144.5 0.00 0.0000000 51.3
2021-03-01 18:25:00 43.5 55.7 28.7 39.7 43.5 6.3 7.1 6.3 155.6 146.1 0.00 0.0000000 51.3
2021-03-01 18:30:00 42.8 57.1 28.7 38.7 42.8 6.7 7.2 6.4 137.4 143.2 0.00 0.0000000 51.3
2021-03-01 18:35:00 42.2 59.0 28.9 38.1 42.2 6.3 7.4 6.3 135.6 138.3 0.00 0.0000000 51.2
2021-03-01 18:40:00 41.7 59.9 28.8 37.4 41.7 6.5 7.8 6.7 138.1 137.7 0.00 0.0000000 51.2
2021-03-01 18:45:00 41.0 61.1 28.6 36.6 41.0 6.3 7.6 6.4 145.8 130.7 0.00 0.0000000 51.2
2021-03-01 18:50:00 41.0 62.2 29.0 35.0 41.0 9.6 9.6 8.3 129.5 134.5 0.00 0.0000000 51.1
2021-03-01 18:55:00 40.8 62.7 29.0 35.6 40.8 7.8 9.4 8.1 147.0 142.1 0.00 0.0000000 51.1
2021-03-01 19:00:00 40.3 63.3 28.8 36.2 40.3 5.8 7.6 6.7 147.4 152.0 0.00 0.0000000 51.0
2021-03-01 19:05:00 39.9 64.3 28.8 35.4 39.9 6.3 7.8 6.5 158.3 153.6 0.00 0.0000000 51.0
2021-03-01 19:10:00 39.7 64.7 28.8 34.4 39.7 7.6 8.3 6.8 145.8 151.1 0.00 0.0000000 50.9
2021-03-01 19:15:00 39.8 65.5 29.2 35.7 39.8 5.6 7.4 6.4 151.7 153.2 0.00 0.0000000 50.9
2021-03-01 19:20:00 39.6 66.6 29.4 34.3 39.6 7.4 8.3 6.8 163.0 163.8 0.00 0.0000000 50.8
2021-03-01 19:25:00 39.6 66.1 29.2 34.5 39.6 7.2 8.7 7.5 166.1 168.0 0.00 0.0000000 50.8
2021-03-01 19:30:00 39.7 65.6 29.1 35.1 39.7 6.3 9.4 7.6 157.3 165.0 0.00 0.0000000 50.7
2021-03-01 19:35:00 39.6 66.1 29.2 35.1 39.6 6.3 7.8 6.9 159.9 160.8 0.00 0.0000000 50.7
2021-03-01 19:40:00 39.3 67.2 29.3 35.1 39.3 5.6 7.1 6.0 171.0 166.0 0.00 0.0000000 50.6
2021-03-01 19:45:00 39.1 67.1 29.1 35.7 39.1 4.6 5.5 4.6 153.7 161.1 0.00 0.0000000 50.6
2021-03-01 19:50:00 38.5 66.9 28.4 34.6 38.5 5.1 5.3 4.8 146.5 151.1 0.00 0.0000000 50.5
2021-03-01 19:55:00 38.3 67.4 28.5 35.0 38.3 4.4 5.5 4.6 151.3 148.8 0.00 0.0000000 50.5
2021-03-01 20:00:00 38.2 68.3 28.7 35.2 38.2 4.0 5.1 4.3 157.9 154.1 0.00 0.0000000 50.5
2021-03-01 20:05:00 38.0 69.6 28.9 34.4 38.0 4.6 4.7 4.3 162.0 162.4 0.00 0.0000000 50.4
2021-03-01 20:10:00 37.5 71.0 29.0 33.4 37.5 5.3 5.3 4.6 168.3 164.5 0.00 0.0000000 50.3
2021-03-01 20:15:00 37.0 71.8 28.7 32.8 37.0 5.1 5.6 5.2 166.8 156.4 0.00 0.0000000 50.3
2021-03-01 20:20:00 36.4 73.1 28.6 32.0 36.4 5.3 5.5 5.0 159.8 153.7 0.00 0.0000000 50.2
2021-03-01 20:25:00 36.3 74.1 28.8 32.1 36.3 4.9 5.5 4.8 156.1 160.2 0.00 0.0000000 50.2
2021-03-01 20:30:00 35.8 75.3 28.8 32.6 35.8 3.8 4.9 4.4 151.8 160.4 0.00 0.0000000 50.1
2021-03-01 20:35:00 35.5 76.2 28.8 31.6 35.5 4.6 4.6 4.2 123.6 154.6 0.00 0.0000000 50.1
2021-03-01 20:40:00 35.5 76.4 28.8 30.5 35.5 5.8 6.3 4.9 155.1 153.3 0.00 0.0000000 50.0
2021-03-01 20:45:00 35.9 75.6 29.0 30.9 35.9 6.0 6.3 5.9 152.6 154.9 0.00 0.0000000 50.0
2021-03-01 20:50:00 35.3 76.7 28.7 32.0 35.3 3.8 6.3 5.0 149.3 149.1 0.00 0.0000000 49.9
2021-03-01 20:55:00 35.1 77.8 28.8 31.2 35.1 4.4 5.5 4.7 155.0 151.8 0.00 0.0000000 49.9
2021-03-01 21:00:00 35.4 77.8 29.1 29.1 35.4 7.6 7.6 5.8 152.2 151.0 0.00 0.0000000 49.8
2021-03-01 21:05:00 36.2 76.2 29.4 30.9 36.2 6.3 9.2 7.4 159.5 158.9 0.00 0.0000000 49.8
2021-03-01 21:10:00 36.3 76.7 29.7 30.6 36.3 7.1 8.5 7.4 167.2 165.3 0.00 0.0000000 49.7
2021-03-01 21:15:00 36.1 76.7 29.5 31.1 36.1 6.0 7.4 6.3 166.4 162.3 0.00 0.0000000 49.7
2021-03-01 21:20:00 36.1 76.6 29.4 30.8 36.1 6.3 8.7 6.6 154.0 160.7 0.00 0.0000000 49.6
2021-03-01 21:25:00 35.7 76.9 29.2 32.0 35.7 4.4 6.9 5.5 147.9 149.1 0.00 0.0000000 49.5
2021-03-01 21:30:00 34.9 78.0 28.8 30.6 34.9 4.9 6.0 4.9 146.5 145.4 0.00 0.0000000 49.5
2021-03-01 21:35:00 34.6 79.8 29.0 30.4 34.6 4.7 5.6 4.8 162.3 152.6 0.00 0.0000000 49.4
2021-03-01 21:40:00 34.4 80.6 29.1 30.3 34.4 4.6 5.5 4.6 159.3 157.7 0.00 0.0000000 49.4
2021-03-01 21:45:00 33.9 81.5 28.8 29.7 33.9 4.6 4.7 4.3 165.2 155.7 0.00 0.0000000 49.3
2021-03-01 21:50:00 33.8 82.1 28.9 29.7 33.8 4.4 4.7 4.3 148.6 157.3 0.00 0.0000000 49.3
2021-03-01 21:55:00 33.6 82.8 29.0 28.7 33.6 5.3 5.5 4.7 157.6 158.0 0.00 0.0000000 49.2
2021-03-01 22:00:00 33.3 83.4 28.8 29.5 33.3 4.0 5.1 4.5 151.3 163.6 0.00 0.0000000 49.2
2021-03-01 22:05:00 32.8 83.4 28.3 28.4 32.8 4.6 4.9 4.1 174.5 169.0 0.00 0.0000000 49.1
2021-03-01 22:10:00 32.5 84.6 28.4 28.1 32.5 4.6 4.7 4.5 159.1 166.5 0.00 0.0000000 49.1
2021-03-01 22:15:00 32.6 84.9 28.6 28.5 32.6 4.2 4.9 4.3 164.9 164.6 0.00 0.0000000 49.0
2021-03-01 22:20:00 32.7 84.1 28.4 28.4 32.7 4.4 4.7 4.3 155.2 153.2 0.00 0.0000000 49.0
2021-03-01 22:25:00 31.9 84.4 27.8 31.9 31.9 2.8 4.4 3.6 168.9 155.9 0.00 0.0000000 48.9
2021-03-01 22:30:00 31.7 85.0 27.7 31.7 31.7 2.8 3.7 3.1 163.0 154.8 0.00 0.0000000 48.8
2021-03-01 22:35:00 31.5 85.5 27.6 28.3 31.5 3.3 3.3 2.7 174.8 166.1 0.00 0.0000000 48.8
2021-03-01 22:40:00 31.4 86.0 27.7 31.4 31.4 2.4 3.3 2.7 175.3 183.5 0.00 0.0000000 48.8
2021-03-01 22:45:00 31.3 86.3 27.6 31.3 31.3 3.0 3.1 2.7 165.0 162.9 0.00 0.0000000 48.7
2021-03-01 22:50:00 31.3 86.4 27.7 31.3 31.3 2.6 3.1 2.6 148.5 156.5 0.00 0.0000000 48.7
2021-03-01 22:55:00 31.5 87.0 28.1 28.3 31.5 3.3 4.2 3.1 155.0 149.3 0.00 0.0000000 48.6
2021-03-01 23:00:00 31.2 86.7 27.7 31.2 31.2 2.8 3.3 2.7 160.7 167.3 0.00 0.0000000 48.5
2021-03-01 23:05:00 31.1 87.1 27.7 31.1 31.1 3.0 3.1 2.9 162.3 163.3 0.00 0.0000000 48.5
2021-03-01 23:10:00 31.0 87.4 27.7 27.8 31.0 3.3 3.8 3.3 185.7 171.4 0.00 0.0000000 48.5
2021-03-01 23:15:00 30.9 87.5 27.6 30.9 30.9 2.1 3.7 3.1 174.6 180.9 0.00 0.0000000 48.4
2021-03-01 23:20:00 30.5 87.5 27.2 30.5 30.5 2.2 2.4 2.0 173.1 178.0 0.00 0.0000000 48.3
2021-03-01 23:25:00 30.3 87.8 27.2 30.3 30.3 1.9 2.4 2.3 201.0 186.9 0.00 0.0000000 48.3
2021-03-01 23:30:00 30.2 88.2 27.2 30.2 30.2 1.7 2.1 1.7 217.3 207.0 0.00 0.0000000 48.2
2021-03-01 23:35:00 30.4 88.5 27.4 30.4 30.4 1.7 2.2 1.8 199.9 203.3 0.00 0.0000000 48.2
2021-03-01 23:40:00 30.1 88.6 27.1 30.1 30.1 2.6 2.8 2.4 205.3 193.8 0.00 0.0000000 48.1
2021-03-01 23:45:00 30.2 88.9 27.3 27.0 30.2 3.1 3.3 3.0 194.6 203.6 0.00 0.0000000 48.1
2021-03-01 23:50:00 30.0 89.1 27.2 26.1 30.0 3.7 4.4 3.8 189.8 192.6 0.00 0.0000000 48.0
2021-03-01 23:55:00 29.9 89.2 27.1 25.8 29.9 3.8 4.4 3.8 182.5 194.4 0.00 0.0000000 47.9
2021-03-02 00:00:00 30.0 89.4 27.3 26.2 30.0 3.7 4.2 3.9 181.6 182.2 0.00 0.0000000 47.9
2021-03-02 00:05:00 30.1 88.8 27.2 30.1 30.1 2.6 3.8 3.3 174.5 181.9 0.00 0.0000000 47.8
2021-03-02 00:10:00 29.4 89.2 26.7 29.4 29.4 1.9 2.8 2.0 171.7 159.4 0.00 0.0000000 47.8
2021-03-02 00:15:00 29.5 90.0 26.9 29.5 29.5 3.0 3.0 2.4 197.5 194.2 0.00 0.0000000 47.7
2021-03-02 00:20:00 30.2 90.1 27.6 26.3 30.2 3.7 3.7 3.2 172.1 186.1 0.00 0.0000000 47.7
2021-03-02 00:25:00 30.2 90.4 27.7 30.2 30.2 2.4 3.7 3.2 165.8 169.9 0.00 0.0000000 47.6
2021-03-02 00:30:00 30.3 90.5 27.8 30.3 30.3 2.8 3.0 2.5 170.6 176.6 0.00 0.0000000 47.6
2021-03-02 00:35:00 30.0 90.0 27.4 30.0 30.0 2.1 3.0 2.2 206.7 191.0 0.00 0.0000000 47.5
2021-03-02 00:40:00 29.3 89.7 26.7 29.3 29.3 2.4 2.8 2.4 234.9 211.2 0.00 0.0000000 47.4
2021-03-02 00:45:00 28.8 90.2 26.3 28.8 28.8 1.9 2.4 1.9 230.5 227.5 0.00 0.0000000 47.4
2021-03-02 00:50:00 28.3 91.1 26.0 28.3 28.3 2.6 2.8 2.4 222.3 232.3 0.00 0.0000000 47.3
2021-03-02 00:55:00 28.0 90.5 25.6 28.0 28.0 2.6 3.0 2.7 227.6 231.4 0.00 0.0000000 47.3
2021-03-02 01:00:00 28.1 90.6 25.8 28.1 28.1 2.8 2.8 2.6 242.4 242.1 0.00 0.0000000 47.2
2021-03-02 01:05:00 28.5 92.6 26.7 24.9 28.5 3.3 3.3 2.8 210.1 223.3 0.00 0.0000000 47.1
2021-03-02 01:10:00 29.6 91.8 27.5 25.9 29.6 3.5 3.7 3.4 212.7 214.5 0.00 0.0000000 47.1
2021-03-02 01:15:00 29.8 91.4 27.6 29.8 29.8 2.8 3.3 2.8 228.6 217.7 0.00 0.0000000 47.0
2021-03-02 01:20:00 28.3 89.8 25.7 25.0 28.3 3.1 3.5 3.0 230.4 237.6 0.00 0.0000000 47.0
2021-03-02 01:25:00 28.2 89.2 25.4 23.4 28.2 4.2 4.2 3.1 241.8 227.6 0.00 0.0000000 46.9
2021-03-02 01:30:00 26.4 89.1 23.7 21.6 26.4 4.0 4.7 4.2 249.5 248.9 0.00 0.0000000 46.8
2021-03-02 01:35:00 25.5 90.1 23.0 21.7 25.5 3.1 3.8 3.3 273.6 258.5 0.00 0.0000000 46.8
2021-03-02 01:40:00 25.1 91.0 22.8 21.0 25.1 3.3 3.8 3.4 260.5 265.9 0.00 0.0000000 46.7
2021-03-02 01:45:00 25.1 90.9 22.9 19.3 25.1 4.7 4.9 4.2 256.5 256.3 0.00 0.0000000 46.7
2021-03-02 01:50:00 25.0 91.4 22.8 21.1 25.0 3.1 4.6 3.9 267.5 253.7 0.00 0.0000000 46.6
2021-03-02 01:55:00 24.8 91.4 22.6 24.8 24.8 1.9 3.3 2.4 274.1 269.5 0.00 0.0000000 46.6
2021-03-02 02:00:00 24.7 92.2 22.7 20.5 24.7 3.3 3.3 2.4 264.5 271.5 0.00 0.0000000 46.5
2021-03-02 02:05:00 25.3 92.2 23.3 20.5 25.3 3.8 4.4 3.9 260.7 264.8 0.00 0.0000000 46.5
2021-03-02 02:10:00 24.9 91.1 22.7 20.5 24.9 3.5 4.7 4.0 277.7 269.9 0.00 0.0000000 46.4
2021-03-02 02:15:00 24.5 92.0 22.5 24.5 24.5 2.6 3.8 3.2 303.2 290.1 0.00 0.0000000 46.3
2021-03-02 02:20:00 25.4 91.8 23.3 25.4 25.4 2.4 3.0 2.7 267.2 280.7 0.00 0.0000000 46.3
2021-03-02 02:25:00 25.5 91.4 23.3 25.5 25.5 2.1 2.4 2.0 281.2 274.2 0.00 0.0000000 46.3
2021-03-02 02:30:00 25.2 91.1 23.0 25.2 25.2 0.0 1.9 0.6 203.5 288.4 0.00 0.0000000 46.2
2021-03-02 02:35:00 25.2 91.2 23.0 25.2 25.2 1.5 1.5 0.2 128.7 122.2 0.00 0.0000000 46.1
2021-03-02 02:40:00 25.5 91.2 23.3 25.5 25.5 2.1 2.6 2.1 115.6 123.7 0.00 0.0000000 46.1
2021-03-02 02:45:00 25.9 91.6 23.8 25.9 25.9 2.6 2.8 2.1 119.1 126.3 0.00 0.0000000 46.1
2021-03-02 02:50:00 26.5 91.5 24.4 26.5 26.5 1.0 2.4 1.7 133.3 122.5 0.00 0.0000000 46.0
2021-03-02 02:55:00 26.7 91.8 24.6 26.7 26.7 0.0 1.2 0.2 129.5 152.2 0.00 0.0000000 46.0
2021-03-02 03:00:00 27.2 89.6 24.6 27.2 27.2 2.4 3.3 1.7 109.9 120.5 0.00 0.0000000 45.9
2021-03-02 03:05:00 26.0 89.5 23.4 26.0 26.0 1.9 3.5 2.7 91.0 100.7 0.00 0.0000000 45.9
2021-03-02 03:10:00 25.8 89.6 23.1 25.8 25.8 0.0 2.2 1.7 100.9 103.1 0.00 0.0000000 45.8
2021-03-02 03:15:00 25.0 88.7 22.2 25.0 25.0 0.0 0.0 0.0 209.8 0.0 0.00 0.0000000 45.7
2021-03-02 03:20:00 24.4 89.7 21.8 24.4 24.4 2.1 2.1 1.2 263.3 240.7 0.00 0.0000000 45.7
2021-03-02 03:25:00 23.7 89.7 21.2 23.7 23.7 1.2 2.2 1.9 285.7 269.5 0.00 0.0000000 45.6
2021-03-02 03:30:00 24.4 90.9 22.1 24.4 24.4 0.0 1.3 0.5 294.3 292.7 0.00 0.0000000 45.6
2021-03-02 03:35:00 23.9 90.1 21.5 23.9 23.9 0.0 1.2 0.2 152.9 161.8 0.00 0.0000000 45.6
2021-03-02 03:40:00 24.2 91.5 22.1 24.2 24.2 1.5 1.9 1.2 212.6 204.2 0.00 0.0000000 45.5
2021-03-02 03:45:00 24.6 91.7 22.5 24.6 24.6 1.0 1.5 0.9 157.5 177.4 0.00 0.0000000 45.5
2021-03-02 03:50:00 24.6 91.1 22.4 24.6 24.6 1.5 1.9 0.6 206.0 200.1 0.00 0.0000000 45.4
2021-03-02 03:55:00 24.3 91.5 22.2 24.3 24.3 0.0 1.9 1.5 185.0 193.3 0.00 0.0000000 45.4
2021-03-02 04:00:00 24.4 91.9 22.4 24.4 24.4 1.5 1.9 1.4 171.6 176.9 0.00 0.0000000 45.3
2021-03-02 04:05:00 24.1 90.9 21.8 24.1 24.1 0.0 1.3 0.2 222.0 175.3 0.00 0.0000000 45.3
2021-03-02 04:10:00 24.1 91.6 22.0 24.1 24.1 1.9 2.1 0.5 248.0 262.0 0.00 0.0000000 45.2
2021-03-02 04:15:00 23.0 91.1 20.8 23.0 23.0 2.4 2.6 2.3 190.0 223.5 0.00 0.0000000 45.2
2021-03-02 04:20:00 22.6 90.4 20.2 22.6 22.6 1.7 2.6 2.3 223.2 215.3 0.00 0.0000000 45.1
2021-03-02 04:25:00 22.7 92.0 20.7 22.7 22.7 1.9 1.9 0.5 225.4 224.1 0.00 0.0000000 45.1
2021-03-02 04:30:00 22.2 91.9 20.2 22.2 22.2 2.6 3.3 2.7 229.5 222.3 0.00 0.0000000 45.0
2021-03-02 04:35:00 21.8 90.6 19.5 15.8 21.8 4.4 4.9 2.7 256.3 234.5 0.00 0.0000000 45.0
2021-03-02 04:40:00 20.9 91.3 18.7 20.9 20.9 2.1 4.4 2.8 223.2 248.7 0.00 0.0000000 44.9
2021-03-02 04:45:00 21.2 91.7 19.2 21.2 21.2 2.4 3.5 2.7 262.7 244.6 0.00 0.0000000 44.9
2021-03-02 04:50:00 22.7 94.2 21.2 22.7 22.7 1.7 2.4 1.7 229.5 230.5 0.00 0.0000000 44.8
2021-03-02 04:55:00 24.0 93.4 22.4 24.0 24.0 1.7 1.9 1.1 245.5 234.4 0.00 0.0000000 44.8
2021-03-02 05:00:00 24.1 92.4 22.2 24.1 24.1 1.5 1.7 1.3 218.7 229.6 0.00 0.0000000 44.7
2021-03-02 05:05:00 24.0 93.0 22.3 24.0 24.0 1.0 1.3 0.2 300.0 238.1 0.00 0.0000000 44.7
2021-03-02 05:10:00 24.3 93.0 22.6 24.3 24.3 0.0 1.5 0.3 339.8 300.5 0.00 0.0000000 44.7
2021-03-02 05:15:00 24.5 91.3 22.3 24.5 24.5 1.7 1.7 0.5 262.6 302.7 0.00 0.0000000 44.6
2021-03-02 05:20:00 21.9 90.1 19.5 17.7 21.9 3.1 3.1 2.5 273.2 261.8 0.00 0.0000000 44.6
2021-03-02 05:25:00 20.7 92.2 18.8 15.4 20.7 3.7 4.2 3.6 282.2 282.9 0.00 0.0000000 44.5
2021-03-02 05:30:00 21.8 92.5 20.0 21.8 21.8 1.7 3.3 2.2 307.0 304.7 0.00 0.0000000 44.5
2021-03-02 05:35:00 21.9 90.8 19.6 21.9 21.9 2.8 3.3 2.7 277.1 286.4 0.00 0.0000000 44.4
2021-03-02 05:40:00 21.5 90.6 19.2 21.5 21.5 1.9 2.6 1.9 261.4 270.7 0.00 0.0000000 44.3
2021-03-02 05:45:00 21.3 90.3 18.9 21.3 21.3 2.2 2.4 2.1 291.9 276.6 0.00 0.0000000 44.3
2021-03-02 05:50:00 22.6 90.6 20.3 22.6 22.6 1.7 2.2 1.9 288.1 282.6 0.00 0.0000000 44.3
2021-03-02 05:55:00 23.5 90.6 21.2 23.5 23.5 0.0 1.3 0.2 314.5 295.1 0.00 0.0000000 44.2
2021-03-02 06:00:00 23.4 89.5 20.8 23.4 23.4 0.0 0.0 0.0 3.8 0.0 0.00 0.0000000 44.2
2021-03-02 06:05:00 23.6 89.5 20.9 23.6 23.6 0.0 0.0 0.0 36.8 0.0 0.00 0.0000000 44.1
2021-03-02 06:10:00 23.7 88.7 20.9 23.7 23.7 0.0 0.0 0.0 48.5 0.0 0.00 0.0010000 44.1
2021-03-02 06:15:00 23.2 88.4 20.3 23.2 23.2 0.0 0.0 0.0 48.5 0.0 0.00 0.0020000 44.0
2021-03-02 06:20:00 22.9 88.5 20.0 22.9 22.9 0.0 0.8 0.0 325.3 311.0 0.00 0.0030000 44.0
2021-03-02 06:25:00 23.0 88.7 20.2 23.0 23.0 0.0 0.0 0.0 321.2 0.0 0.00 0.0050000 44.0
2021-03-02 06:30:00 22.5 88.7 19.7 22.5 22.5 1.2 1.3 0.5 241.1 267.3 0.00 0.0100000 43.9
2021-03-02 06:35:00 23.0 87.0 19.7 18.4 23.0 3.5 3.5 2.4 244.1 248.8 0.00 0.0170000 43.9
2021-03-02 06:40:00 21.0 86.3 17.5 16.6 21.0 3.1 4.0 3.6 249.4 247.5 0.00 0.0260000 43.8
2021-03-02 06:45:00 20.6 86.9 17.3 20.6 20.6 3.0 3.1 2.9 263.4 252.8 0.00 0.0380000 43.8
2021-03-02 06:50:00 20.7 87.2 17.5 20.7 20.7 2.8 3.3 2.7 260.4 257.2 0.00 0.0530000 43.8
2021-03-02 06:55:00 21.3 87.5 18.2 21.3 21.3 3.0 3.1 2.9 267.1 259.0 0.00 0.0710000 43.7
2021-03-02 07:00:00 22.1 87.7 19.0 22.1 22.1 2.6 3.0 2.5 271.4 265.0 0.00 0.0910000 43.7
2021-03-02 07:05:00 23.2 87.9 20.2 23.2 23.2 1.9 2.6 1.9 248.4 263.0 0.00 0.1130000 43.6
2021-03-02 07:10:00 23.9 87.5 20.8 23.9 23.9 2.1 2.4 2.1 234.0 247.4 0.00 0.1350000 43.6
2021-03-02 07:15:00 24.7 87.6 21.5 24.7 24.7 2.1 2.2 1.8 235.6 240.7 0.00 0.1540000 43.5
2021-03-02 07:20:00 25.7 87.9 22.6 25.7 25.7 0.8 2.1 1.6 242.5 238.1 0.00 0.1700000 43.5
2021-03-02 07:25:00 26.8 87.4 23.5 26.8 26.8 1.2 1.5 0.6 221.0 224.1 0.00 0.1850000 43.5
2021-03-02 07:30:00 27.6 87.4 24.4 27.6 27.6 2.2 2.2 1.5 194.5 189.4 0.00 0.2010000 43.4

Data is courtesy of the NM Climate Center. DO NOT USE IN LEGAL PROCEEDINGS.